Time;durP1;ratioP1;P1;durP2;ratioP2;P2;SDS_P1;SDS_P2;PMS_P1;PMS_P2;Temp;Humidity;BMP_temperature;BMP_pressure;BME280_temperature;BME280_humidity;BME280_pressure;Samples;Min_cycle;Max_cycle;Signal;HPM_P1;HPM_P2
2024/01/18 00:01:15;;;;;;;42.60;22.95;;;;;;;;;;5122264;28;20024;-78
2024/01/18 00:03:41;;;;;;;50.17;23.63;;;5.00;99.90;;;;;;5131168;27;20019;-73
2024/01/18 00:06:08;;;;;;;46.70;24.45;;;5.00;99.90;;;;;;5142349;27;20059;-73
2024/01/18 00:08:33;;;;;;;48.78;23.17;;;5.10;99.90;;;;;;5141871;27;20098;-72
2024/01/18 00:11:00;;;;;;;43.80;22.98;;;5.10;99.90;;;;;;5142202;27;20019;-74
2024/01/18 00:13:27;;;;;;;46.47;22.45;;;5.00;99.90;;;;;;5142614;27;20042;-74
2024/01/18 00:15:52;;;;;;;40.80;20.88;;;5.10;99.90;;;;;;5142197;27;20035;-73
2024/01/18 00:18:19;;;;;;;44.22;23.25;;;5.00;99.90;;;;;;5142488;27;20057;-74
2024/01/18 00:20:44;;;;;;;42.05;22.40;;;5.10;99.90;;;;;;5142734;27;20086;-73
2024/01/18 00:23:10;;;;;;;41.42;22.08;;;5.10;99.90;;;;;;5142571;27;20023;-74
2024/01/18 00:25:36;;;;;;;39.25;21.60;;;5.10;99.90;;;;;;5142600;27;20031;-75
2024/01/18 00:28:02;;;;;;;43.33;22.33;;;5.10;99.90;;;;;;5142273;27;20050;-74
2024/01/18 00:30:28;;;;;;;43.47;23.42;;;;;;;;;;5142301;28;20031;-73
2024/01/18 00:32:54;;;;;;;46.47;23.33;;;5.10;99.90;;;;;;5137442;28;20061;-74
2024/01/18 00:35:19;;;;;;;45.78;24.30;;;5.20;99.90;;;;;;5118545;28;20024;-73
2024/01/18 00:37:46;;;;;;;48.72;22.80;;;5.10;99.90;;;;;;5136957;28;20538;-74
2024/01/18 00:40:16;;;;;;;52.05;23.20;;;;;;;;;;5124092;28;20355;-73
2024/01/18 00:42:42;;;;;;;;;;;5.20;99.90;;;;;;5142911;28;20055;-74
2024/01/18 00:45:08;;;;;;;44.05;22.48;;;5.10;99.90;;;;;;5142347;28;20225;-74
2024/01/18 00:47:33;;;;;;;51.60;23.33;;;5.50;99.90;;;;;;5123642;28;20031;-74
2024/01/18 00:49:59;;;;;;;51.75;22.00;;;5.50;99.90;;;;;;5115037;28;20030;-74
2024/01/18 00:52:25;;;;;;;52.85;24.50;;;5.30;99.90;;;;;;5118798;28;20050;-74
2024/01/18 00:54:50;;;;;;;38.25;19.67;;;5.30;99.90;;;;;;5121030;28;20020;-74
2024/01/18 00:57:16;;;;;;;44.28;22.80;;;5.30;99.90;;;;;;5142835;28;20040;-77
2024/01/18 00:59:42;;;;;;;46.65;22.90;;;5.30;99.90;;;;;;5145329;27;20414;-76
2024/01/18 01:02:08;;;;;;;45.75;22.58;;;5.30;99.90;;;;;;5129042;27;20030;-76
2024/01/18 01:04:34;;;;;;;52.22;25.40;;;;;;;;;;5146890;27;20034;-77
2024/01/18 01:07:00;;;;;;;54.88;28.20;;;;;;;;;;5147518;27;20121;-77
2024/01/18 01:09:26;;;;;;;60.72;27.02;;;5.20;99.90;;;;;;5147773;27;20049;-78
2024/01/18 01:11:52;;;;;;;51.38;26.00;;;5.20;99.90;;;;;;5116353;28;20291;-78
2024/01/18 01:14:18;;;;;;;51.53;25.75;;;5.20;99.90;;;;;;5126757;28;20327;-77
2024/01/18 01:16:44;;;;;;;52.88;26.10;;;5.10;99.90;;;;;;5108460;28;20339;-77
2024/01/18 01:19:09;;;;;;;57.35;27.25;;;5.10;99.90;;;;;;5126759;28;20026;-76
2024/01/18 01:21:35;;;;;;;51.70;24.98;;;5.00;99.90;;;;;;5108523;28;20030;-76
2024/01/18 01:24:01;;;;;;;41.13;20.10;;;5.00;99.90;;;;;;5126869;28;20323;-74
2024/01/18 01:26:26;;;;;;;57.35;27.25;;;5.00;99.90;;;;;;5125382;28;20019;-75
2024/01/18 01:28:52;;;;;;;49.58;24.50;;;4.90;99.90;;;;;;5125482;28;20019;-75
2024/01/18 01:31:19;;;;;;;53.08;27.23;;;;;;;;;;5108516;28;20050;-76
2024/01/18 01:33:46;;;;;;;49.10;23.85;;;;;;;;;;5108379;28;20064;-75
2024/01/18 01:36:12;;;;;;;49.70;23.35;;;4.80;99.90;;;;;;5125507;28;20040;-76
2024/01/18 01:38:38;;;;;;;53.28;24.05;;;;;;;;;;5126056;28;20073;-76
2024/01/18 01:41:05;;;;;;;48.03;24.63;;;4.40;99.90;;;;;;5126733;28;20046;-75
2024/01/18 01:43:31;;;;;;;50.83;23.27;;;;;;;;;;5126396;28;20019;-76
2024/01/18 01:45:57;;;;;;;49.00;22.95;;;4.80;99.90;;;;;;5107277;28;20019;-76
2024/01/18 01:48:24;;;;;;;46.10;22.55;;;4.70;99.90;;;;;;5126405;28;20099;-76
2024/01/18 01:50:49;;;;;;;52.20;24.15;;;4.80;99.90;;;;;;5108226;28;20023;-76
2024/01/18 01:53:18;;;;;;;44.53;23.27;;;4.80;99.90;;;;;;5127413;28;20026;-81
2024/01/18 01:55:44;;;;;;;46.85;23.88;;;;;;;;;;5127015;28;20127;-79
2024/01/18 01:58:11;;;;;;;42.42;20.92;;;4.80;99.90;;;;;;5108615;28;20365;-80
2024/01/18 02:00:37;;;;;;;42.25;20.63;;;4.90;99.90;;;;;;5108166;28;20027;-79
2024/01/18 02:03:05;;;;;;;47.00;22.00;;;4.90;99.90;;;;;;5126822;28;20016;-79
2024/01/18 02:05:31;;;;;;;42.85;21.98;;;4.80;99.90;;;;;;5108376;28;20360;-81
2024/01/18 02:07:57;;;;;;;44.90;20.40;;;4.90;99.90;;;;;;5108387;28;20035;-79
2024/01/18 02:10:24;;;;;;;40.20;20.77;;;5.20;99.90;;;;;;5106991;28;20024;-79
2024/01/18 02:12:52;;;;;;;41.85;20.58;;;5.10;99.90;;;;;;5107732;28;20235;-78
2024/01/18 02:15:18;;;;;;;37.45;19.52;;;5.40;99.90;;;;;;5125955;28;20057;-78
2024/01/18 02:17:44;;;;;;;35.33;18.02;;;5.60;99.90;;;;;;5108074;28;20207;-81
2024/01/18 02:20:10;;;;;;;28.25;15.00;;;5.50;99.90;;;;;;5107288;28;20023;-79
2024/01/18 02:22:43;;;;;;;32.88;18.48;;;5.60;99.90;;;;;;5108110;28;20107;-80
2024/01/18 02:25:18;;;;;;;33.15;16.15;;;5.80;99.90;;;;;;5126077;28;20019;-81
2024/01/18 02:27:43;;;;;;;30.85;16.88;;;5.90;99.90;;;;;;5107752;28;20012;-83
2024/01/18 02:30:09;;;;;;;37.42;19.02;;;6.10;99.90;;;;;;5091813;28;20389;-83
2024/01/18 02:32:36;;;;;;;30.35;15.80;;;6.00;99.90;;;;;;5099987;28;20058;-83
2024/01/18 02:35:02;;;;;;;31.92;17.15;;;5.90;99.90;;;;;;5108284;28;20039;-81
2024/01/18 02:37:28;;;;;;;27.50;16.35;;;6.10;99.90;;;;;;5105361;28;20032;-73
2024/01/18 02:39:54;;;;;;;26.70;15.45;;;;;;;;;;5104407;28;20043;-76
2024/01/18 02:42:21;;;;;;;35.28;16.90;;;6.00;99.90;;;;;;5108229;28;20030;-77
2024/01/18 02:44:47;;;;;;;33.58;17.63;;;6.10;99.90;;;;;;5086249;28;20339;-79
2024/01/18 02:47:13;;;;;;;34.25;18.95;;;6.10;99.90;;;;;;5109055;28;20096;-74
2024/01/18 02:49:39;;;;;;;31.90;17.40;;;6.10;99.90;;;;;;5103209;28;20031;-76
2024/01/18 02:52:06;;;;;;;33.08;17.35;;;5.90;99.90;;;;;;5112205;28;20318;-77
2024/01/18 02:54:32;;;;;;;32.03;17.98;;;5.80;99.90;;;;;;5105499;28;20342;-74
2024/01/18 02:56:58;;;;;;;32.05;17.75;;;5.90;99.90;;;;;;5123513;28;20029;-75
2024/01/18 02:59:23;;;;;;;33.47;17.83;;;6.00;99.90;;;;;;5123702;28;20016;-74
2024/01/18 03:01:49;;;;;;;34.72;18.63;;;6.00;99.90;;;;;;5091607;28;20058;-76
2024/01/18 03:04:14;;;;;;;32.63;18.48;;;6.00;99.90;;;;;;5103076;28;20016;-75
2024/01/18 03:06:40;;;;;;;34.30;17.55;;;6.00;99.90;;;;;;5084802;28;20056;-76
2024/01/18 03:09:06;;;;;;;33.53;17.35;;;6.10;99.90;;;;;;5084799;28;20020;-75
2024/01/18 03:11:31;;;;;;;37.65;18.08;;;6.00;99.90;;;;;;5103194;28;20028;-75
2024/01/18 03:13:57;;;;;;;37.80;18.48;;;5.90;99.90;;;;;;5103296;28;20213;-75
2024/01/18 03:16:23;;;;;;;32.45;17.90;;;5.90;99.90;;;;;;5102807;28;20269;-75
2024/01/18 03:18:48;;;;;;;35.55;19.75;;;6.10;99.90;;;;;;5102810;28;20312;-77
2024/01/18 03:21:14;;;;;;;32.00;16.75;;;6.20;99.90;;;;;;5102851;28;20020;-74
2024/01/18 03:23:40;;;;;;;32.25;17.33;;;6.10;99.90;;;;;;5102789;28;20020;-76
2024/01/18 03:26:07;;;;;;;36.25;18.00;;;6.10;99.90;;;;;;5103021;28;20026;-77
2024/01/18 03:28:33;;;;;;;37.33;18.17;;;6.10;99.90;;;;;;5103061;28;20030;-75
2024/01/18 03:30:58;;;;;;;45.72;22.92;;;6.00;99.90;;;;;;5102943;28;20083;-75
2024/01/18 03:33:24;;;;;;;40.50;19.98;;;6.10;99.90;;;;;;5103398;28;20027;-76
2024/01/18 03:35:49;;;;;;;42.03;21.27;;;5.80;99.90;;;;;;5102072;28;20336;-73
2024/01/18 03:38:15;;;;;;;44.22;20.90;;;6.10;99.90;;;;;;5101543;28;20032;-73
2024/01/18 03:40:41;;;;;;;36.78;19.27;;;5.90;99.90;;;;;;5101362;28;20027;-73
2024/01/18 03:43:07;;;;;;;44.20;21.15;;;5.90;99.90;;;;;;5101541;28;20343;-73
2024/01/18 03:45:33;;;;;;;38.10;20.13;;;6.30;99.90;;;;;;5083123;28;20028;-73
2024/01/18 03:47:59;;;;;;;38.20;18.90;;;6.30;99.90;;;;;;5122183;28;20036;-75
2024/01/18 03:50:25;;;;;;;39.30;20.05;;;6.30;99.90;;;;;;5105139;28;20304;-74
2024/01/18 03:52:50;;;;;;;37.60;18.60;;;6.40;99.90;;;;;;5123131;28;20213;-75
2024/01/18 03:55:16;;;;;;;37.40;18.67;;;6.50;99.90;;;;;;5122669;28;20054;-76
2024/01/18 03:57:42;;;;;;;30.30;16.85;;;6.60;99.90;;;;;;5123951;28;20024;-76
2024/01/18 04:00:09;;;;;;;26.90;14.68;;;6.60;99.90;;;;;;5104791;28;20051;-79
2024/01/18 04:02:35;;;;;;;35.67;17.70;;;6.80;99.90;;;;;;5123653;28;20007;-81
2024/01/18 04:05:01;;;;;;;30.58;16.73;;;6.90;99.90;;;;;;5123135;28;20086;-75
2024/01/18 04:07:27;;;;;;;29.13;15.38;;;7.00;99.90;;;;;;5122228;28;20047;-74
2024/01/18 04:09:53;;;;;;;21.17;11.38;;;;;;;;;;5121898;28;20349;-71
2024/01/18 04:12:19;;;;;;;26.17;14.77;;;7.00;99.90;;;;;;5121365;28;20335;-71
2024/01/18 04:14:44;;;;;;;23.40;13.60;;;7.20;99.90;;;;;;5121202;28;20065;-72
2024/01/18 04:17:13;;;;;;;25.77;14.43;;;7.30;99.90;;;;;;5121533;28;20135;-71
2024/01/18 04:19:39;;;;;;;;;;;7.30;99.90;;;;;;5121930;28;20028;-71
2024/01/18 04:22:05;;;;;;;22.23;12.52;;;7.70;99.90;;;;;;5120978;28;19966;-71
2024/01/18 04:24:31;;;;;;;20.00;11.57;;;7.40;99.90;;;;;;5121463;28;20019;-71
2024/01/18 04:26:57;;;;;;;23.48;12.23;;;7.50;99.90;;;;;;5121305;28;20035;-71
2024/01/18 04:29:23;;;;;;;24.48;14.48;;;7.70;99.90;;;;;;5121147;28;20396;-71
2024/01/18 04:31:49;;;;;;;19.67;11.95;;;7.70;99.90;;;;;;5121458;28;20208;-71
2024/01/18 04:34:15;;;;;;;21.42;12.02;;;7.90;99.90;;;;;;5120542;28;20091;-70
2024/01/18 04:36:40;;;;;;;22.27;12.20;;;7.80;99.90;;;;;;5120950;28;20039;-71
2024/01/18 04:39:06;;;;;;;19.80;13.07;;;7.70;99.90;;;;;;5120974;28;20015;-71
2024/01/18 04:41:32;;;;;;;21.02;12.68;;;7.40;99.90;;;;;;5120916;28;20011;-71
2024/01/18 04:43:58;;;;;;;23.33;11.35;;;7.60;99.90;;;;;;5121257;28;20023;-76
2024/01/18 04:46:25;;;;;;;19.15;10.90;;;7.70;99.90;;;;;;5121926;28;20204;-77
2024/01/18 04:48:51;;;;;;;17.33;9.57;;;8.10;99.90;;;;;;5121146;28;20082;-73
2024/01/18 04:51:19;;;;;;;18.92;10.10;;;;;;;;;;5121568;28;20298;-77
2024/01/18 04:53:45;;;;;;;15.77;8.68;;;;;;;;;;5102770;28;20019;-74
2024/01/18 04:56:11;;;;;;;20.17;10.82;;;8.00;99.90;;;;;;5121247;28;20040;-79
2024/01/18 04:58:37;;;;;;;17.98;10.23;;;8.10;99.90;;;;;;5119248;28;20034;-74
2024/01/18 05:01:03;;;;;;;14.73;10.10;;;8.30;99.90;;;;;;5104434;28;20043;-74
2024/01/18 05:03:28;;;;;;;21.52;10.48;;;8.00;99.90;;;;;;5111053;28;20016;-72
2024/01/18 05:05:56;;;;;;;17.35;10.30;;;8.10;99.90;;;;;;5120617;28;20063;-72
2024/01/18 05:08:22;;;;;;;16.80;10.57;;;7.80;99.90;;;;;;5120106;28;20083;-73
2024/01/18 05:10:48;;;;;;;17.50;10.60;;;;;;;;;;5082146;28;20047;-72
2024/01/18 05:13:14;;;;;;;17.48;11.68;;;;;;;;;;5100449;28;20024;-73
2024/01/18 05:15:40;;;;;;;15.75;9.57;;;8.20;99.90;;;;;;5100305;28;20043;-76
2024/01/18 05:18:06;;;;;;;19.48;10.50;;;;;;;;;;5100550;28;20042;-74
2024/01/18 05:20:33;;;;;;;20.08;11.30;;;8.10;99.90;;;;;;5100527;28;20316;-84
2024/01/18 05:22:59;;;;;;;20.85;11.43;;;8.40;99.90;;;;;;5082756;28;20028;-75
2024/01/18 05:25:25;;;;;;;17.65;10.50;;;;;;;;;;5100458;28;20113;-74
2024/01/18 05:27:51;;;;;;;21.40;13.13;;;8.10;99.90;;;;;;5082012;28;20095;-76
2024/01/18 05:30:16;;;;;;;17.90;11.48;;;8.10;99.90;;;;;;5100228;28;20331;-77
2024/01/18 05:32:42;;;;;;;18.23;10.45;;;8.10;99.90;;;;;;5100795;28;20012;-77
2024/01/18 05:35:08;;;;;;;23.38;12.18;;;8.20;99.90;;;;;;5100644;28;20344;-77
2024/01/18 05:37:35;;;;;;;23.45;11.52;;;8.10;99.90;;;;;;5099925;28;20028;-73
2024/01/18 05:40:00;;;;;;;22.17;11.73;;;8.10;99.90;;;;;;5100149;28;20039;-73
2024/01/18 05:42:27;;;;;;;24.38;10.50;;;;;;;;;;5100085;28;20024;-75
2024/01/18 05:44:53;;;;;;;20.45;11.07;;;8.20;99.90;;;;;;5100198;28;20384;-76
2024/01/18 05:47:20;;;;;;;20.13;10.80;;;8.10;99.90;;;;;;5096006;28;20024;-79
2024/01/18 05:49:46;;;;;;;23.67;11.48;;;;;;;;;;5124363;28;20023;-79
2024/01/18 05:52:13;;;;;;;14.95;9.32;;;8.20;99.90;;;;;;5105618;28;20027;-74
2024/01/18 05:54:39;;;;;;;19.45;11.50;;;8.40;99.90;;;;;;5123844;28;20230;-78
2024/01/18 05:57:05;;;;;;;16.35;10.13;;;;;;;;;;5123784;28;20343;-74
2024/01/18 05:59:31;;;;;;;14.00;10.32;;;8.30;99.90;;;;;;5123773;28;20112;-73
2024/01/18 06:01:57;;;;;;;18.40;11.13;;;;;;;;;;5123788;28;20335;-74
2024/01/18 06:04:26;;;;;;;20.05;11.57;;;8.50;99.90;;;;;;5123850;28;20084;-73
2024/01/18 06:06:52;;;;;;;18.65;10.98;;;;;;;;;;5123322;28;20044;-74
2024/01/18 06:09:18;;;;;;;18.92;10.88;;;;;;;;;;5109004;28;20035;-74
2024/01/18 06:11:45;;;;;;;16.40;11.27;;;8.20;99.90;;;;;;5103118;28;20354;-74
2024/01/18 06:14:11;;;;;;;19.17;11.80;;;8.20;99.90;;;;;;5102043;28;20083;-74
2024/01/18 06:16:37;;;;;;;23.23;12.68;;;8.20;99.90;;;;;;5102168;28;20032;-73
2024/01/18 06:19:03;;;;;;;19.92;11.38;;;;;;;;;;5101851;28;20243;-73
2024/01/18 06:21:28;;;;;;;18.65;11.98;;;8.40;99.90;;;;;;5102412;28;20020;-77
2024/01/18 06:23:55;;;;;;;18.75;11.18;;;8.30;99.90;;;;;;5102436;28;20308;-72
2024/01/18 06:26:20;;;;;;;16.08;10.30;;;8.20;99.90;;;;;;5101793;28;20171;-74
2024/01/18 06:28:46;;;;;;;20.63;11.18;;;;;;;;;;5102449;28;20087;-74
2024/01/18 06:31:13;;;;;;;19.75;11.50;;;;;;;;;;5102325;28;20024;-73
2024/01/18 06:33:39;;;;;;;17.08;11.00;;;8.30;99.90;;;;;;5102339;28;20074;-80
2024/01/18 06:36:07;;;;;;;17.35;10.98;;;8.10;99.90;;;;;;5084695;28;20213;-75
2024/01/18 06:38:33;;;;;;;21.60;12.13;;;;;;;;;;5102588;28;20019;-76
2024/01/18 06:41:00;;;;;;;19.52;10.82;;;8.10;99.90;;;;;;5102701;28;20058;-77
2024/01/18 06:43:26;;;;;;;19.38;10.15;;;8.40;99.90;;;;;;5102638;28;20024;-77
2024/01/18 06:45:54;;;;;;;18.95;11.27;;;;;;;;;;5102422;28;20024;-75
2024/01/18 06:48:24;;;;;;;22.23;12.07;;;8.20;99.90;;;;;;5102508;28;20012;-74
2024/01/18 06:50:51;;;;;;;24.23;12.25;;;8.40;99.90;;;;;;5102690;28;20028;-75
2024/01/18 06:53:16;;;;;;;18.48;10.82;;;8.30;99.90;;;;;;5083997;28;20020;-76
2024/01/18 06:55:42;;;;;;;19.02;11.85;;;;;;;;;;5102173;28;20047;-75
2024/01/18 06:58:09;;;;;;;18.45;10.80;;;;;;;;;;5082678;28;20055;-77
2024/01/18 07:00:34;;;;;;;19.73;12.07;;;8.30;99.90;;;;;;5102200;28;20025;-75
2024/01/18 07:03:00;;;;;;;20.80;11.88;;;;;;;;;;5102165;28;20020;-73
2024/01/18 07:05:26;;;;;;;22.00;11.82;;;8.20;99.90;;;;;;5102078;28;20035;-75
2024/01/18 07:07:52;;;;;;;20.70;12.52;;;;;;;;;;5101941;28;20031;-74
2024/01/18 07:10:20;;;;;;;23.40;12.60;;;;;;;;;;5102087;28;20054;-74
2024/01/18 07:12:46;;;;;;;23.35;13.88;;;8.20;99.90;;;;;;5101944;28;20052;-76
2024/01/18 07:15:12;;;;;;;20.92;12.45;;;8.30;99.90;;;;;;5083898;28;20059;-74
2024/01/18 07:17:38;;;;;;;19.98;12.23;;;;;;;;;;5101893;28;20073;-77
2024/01/18 07:20:04;;;;;;;21.80;13.85;;;8.20;99.90;;;;;;5101997;28;20324;-74
2024/01/18 07:22:30;;;;;;;23.42;12.48;;;8.70;99.90;;;;;;5101926;28;20020;-75
2024/01/18 07:24:56;;;;;;;20.95;12.77;;;8.30;99.90;;;;;;5083681;28;20317;-75
2024/01/18 07:27:22;;;;;;;23.92;14.13;;;8.30;99.90;;;;;;5082852;28;20226;-76
2024/01/18 07:29:49;;;;;;;19.75;12.70;;;8.30;99.90;;;;;;5101534;28;20032;-75
2024/01/18 07:32:16;;;;;;;26.65;14.43;;;8.40;99.90;;;;;;5101690;28;20073;-76
2024/01/18 07:34:41;;;;;;;29.08;13.77;;;8.30;99.90;;;;;;5101517;28;20089;-75
2024/01/18 07:37:08;;;;;;;31.67;12.88;;;8.10;99.90;;;;;;5101690;28;20059;-77
2024/01/18 07:39:34;;;;;;;45.63;16.35;;;6.50;99.90;;;;;;5101588;28;20312;-76
2024/01/18 07:42:00;;;;;;;25.13;14.98;;;;;;;;;;5101363;28;20088;-74
2024/01/18 07:44:27;;;;;;;56.65;15.10;;;8.50;99.90;;;;;;5104419;28;20055;-79
2024/01/18 07:46:53;;;;;;;35.65;15.30;;;;;;;;;;5112359;28;20103;-82
2024/01/18 07:49:20;;;;;;;206.52;17.77;;;7.90;99.90;;;;;;5114505;28;20016;-80
2024/01/18 07:51:46;;;;;;;63.30;17.63;;;7.80;99.90;;;;;;5102455;28;20087;-76
2024/01/18 07:54:13;;;;;;;37.22;15.40;;;7.80;99.90;;;;;;5114700;28;20304;-80
2024/01/18 07:56:39;;;;;;;92.10;17.02;;;;;;;;;;5122319;28;20067;-78
2024/01/18 07:59:05;;;;;;;23.17;14.70;;;;;;;;;;5104152;28;20039;-78
2024/01/18 08:01:31;;;;;;;25.63;14.25;;;7.80;99.90;;;;;;5123064;28;20031;-79
2024/01/18 08:03:56;;;;;;;26.35;14.55;;;7.80;99.90;;;;;;5103824;28;20015;-75
2024/01/18 08:06:22;;;;;;;27.80;15.10;;;7.60;99.90;;;;;;5121739;28;20051;-76
2024/01/18 08:08:48;;;;;;;30.73;15.98;;;7.90;99.90;;;;;;5120251;28;20020;-74
2024/01/18 08:11:14;;;;;;;66.10;31.45;;;;;;;;;;5121552;28;20020;-77
2024/01/18 08:13:40;;;;;;;46.45;24.25;;;7.80;99.90;;;;;;5103886;28;20447;-80
2024/01/18 08:16:10;;;;;;;36.05;20.00;;;7.90;99.90;;;;;;5103490;28;20331;-75
2024/01/18 08:18:36;;;;;;;;;;;7.90;99.90;;;;;;5119230;28;20022;-74
2024/01/18 08:21:02;;;;;;;31.98;17.25;;;8.00;99.90;;;;;;5121621;28;19937;-74
2024/01/18 08:23:28;;;;;;;33.65;18.63;;;;;;;;;;5121765;28;20026;-77
2024/01/18 08:25:54;;;;;;;54.47;25.23;;;8.00;99.90;;;;;;5122196;28;20023;-76
2024/01/18 08:28:21;;;;;;;38.42;21.30;;;8.30;99.90;;;;;;5102296;28;20434;-78
2024/01/18 08:30:47;;;;;;;36.80;20.80;;;8.00;99.90;;;;;;5121860;28;20135;-77
2024/01/18 08:33:13;;;;;;;47.35;25.80;;;7.80;99.90;;;;;;5121971;28;20015;-78
2024/01/18 08:35:38;;;;;;;61.90;28.63;;;8.10;99.90;;;;;;5109896;28;20040;-75
2024/01/18 08:38:05;;;;;;;61.80;31.02;;;;;;;;;;5102259;28;20023;-77
2024/01/18 08:40:31;;;;;;;70.97;32.22;;;;;;;;;;5084088;28;20244;-76
2024/01/18 08:42:57;;;;;;;50.08;26.85;;;8.10;99.90;;;;;;5084072;28;20324;-77
2024/01/18 08:45:23;;;;;;;57.55;32.10;;;7.80;99.90;;;;;;5102666;28;20031;-75
2024/01/18 08:47:49;;;;;;;40.50;23.55;;;7.70;99.90;;;;;;5102420;28;20023;-79
2024/01/18 08:50:15;;;;;;;49.10;26.27;;;;;;;;;;5103196;28;20024;-78
2024/01/18 08:52:44;;;;;;;46.90;26.95;;;7.90;99.90;;;;;;5102703;28;20027;-77
2024/01/18 08:55:10;;;;;;;38.50;22.80;;;;;;;;;;5102500;28;20314;-77
2024/01/18 08:57:36;;;;;;;35.83;19.67;;;8.00;99.90;;;;;;5101433;28;20073;-79
2024/01/18 09:00:02;;;;;;;35.90;20.20;;;7.80;99.90;;;;;;5083285;28;20051;-79
2024/01/18 09:02:29;;;;;;;30.52;18.15;;;7.80;99.90;;;;;;5100763;28;20357;-80
2024/01/18 09:04:55;;;;;;;35.92;22.15;;;7.70;99.90;;;;;;5083392;28;20099;-84
2024/01/18 09:07:21;;;;;;;31.80;19.58;;;;;;;;;;5068872;28;20056;-79
2024/01/18 09:09:47;;;;;;;41.47;23.17;;;7.90;99.90;;;;;;5061180;28;20029;-81
2024/01/18 09:12:14;;;;;;;38.08;23.70;;;7.90;99.90;;;;;;5060928;28;20025;-83
2024/01/18 09:14:40;;;;;;;30.60;19.00;;;;;;;;;;5060673;28;20048;-79
2024/01/18 09:17:06;;;;;;;32.28;16.20;;;;;;;;;;5060668;28;20041;-79
2024/01/18 09:19:32;;;;;;;27.60;17.08;;;;;;;;;;5042876;28;20025;-77
2024/01/18 09:21:58;;;;;;;27.20;17.15;;;8.20;99.90;;;;;;5064368;28;20029;-76
2024/01/18 09:24:23;;;;;;;34.88;16.65;;;8.30;99.90;;;;;;5064308;28;20020;-81
2024/01/18 09:26:49;;;;;;;42.85;22.88;;;7.90;99.90;;;;;;5046566;28;20084;-80
2024/01/18 09:29:15;;;;;;;42.97;24.08;;;7.90;99.90;;;;;;5046360;28;20032;-83
2024/01/18 09:31:41;;;;;;;46.42;23.92;;;9.00;99.90;;;;;;5064282;28;20340;-78
2024/01/18 09:34:07;;;;;;;40.15;21.25;;;8.10;99.90;;;;;;5063501;28;20025;-78
2024/01/18 09:36:33;;;;;;;41.55;21.50;;;;;;;;;;5063648;28;20052;-82
2024/01/18 09:38:59;;;;;;;39.10;20.60;;;8.20;99.90;;;;;;5063714;28;20013;-81
2024/01/18 09:41:29;;;;;;;41.25;22.83;;;8.10;99.90;;;;;;5063185;28;20013;-79
2024/01/18 09:44:01;;;;;;;48.53;22.25;;;8.20;99.90;;;;;;5045237;28;20313;-80
2024/01/18 09:46:30;;;;;;;41.60;20.63;;;8.20;99.90;;;;;;5063056;28;20067;-79
2024/01/18 09:48:57;;;;;;;39.20;21.48;;;8.20;99.90;;;;;;5044942;28;20025;-77
2024/01/18 09:51:23;;;;;;;41.28;21.90;;;8.30;99.90;;;;;;5062797;28;20024;-75
2024/01/18 09:53:55;;;;;;;34.25;20.70;;;8.60;99.90;;;;;;5063096;28;20024;-75
2024/01/18 09:56:21;;;;;;;42.58;23.08;;;;;;;;;;5062742;28;20040;-75
2024/01/18 09:58:47;;;;;;;51.90;27.35;;;;;;;;;;5062811;28;20215;-76
2024/01/18 10:01:20;;;;;;;56.22;31.88;;;8.80;99.90;;;;;;5062407;28;20052;-77
2024/01/18 10:03:47;;;;;;;34.10;21.48;;;8.90;99.90;;;;;;5065531;28;20022;-76
2024/01/18 10:06:13;;;;;;;41.88;26.05;;;;;;;;;;5095960;28;20063;-76
2024/01/18 10:08:39;;;;;;;32.83;21.02;;;;;;;;;;5123373;28;20327;-76
2024/01/18 10:11:05;;;;;;;30.25;19.35;;;9.50;99.90;;;;;;5123208;28;20027;-75
2024/01/18 10:13:50;;;;;;;29.75;19.73;;;9.20;99.90;;;;;;5123494;28;20078;-75
2024/01/18 10:16:30;;;;;;;30.73;18.85;;;9.30;99.90;;;;;;5122983;28;20323;-79
2024/01/18 10:19:00;;;;;;;36.03;20.58;;;9.30;99.90;;;;;;5105126;28;20048;-79
2024/01/18 10:21:27;;;;;;;213.05;26.55;;;9.30;99.90;;;;;;5105094;28;20084;-79
2024/01/18 10:23:54;;;;;;;44.17;22.65;;;8.90;99.90;;;;;;5123245;28;20034;-77
2024/01/18 10:26:24;;;;;;;39.22;24.25;;;8.90;99.90;;;;;;5123142;28;20208;-79
2024/01/18 10:28:49;;;;;;;38.03;22.25;;;8.50;99.90;;;;;;5122908;28;20042;-80
2024/01/18 10:31:15;;;;;;;79.60;26.10;;;;;;;;;;5122647;28;20311;-78
2024/01/18 10:33:41;;;;;;;41.45;22.85;;;;;;;;;;5104675;28;20031;-76
2024/01/18 10:36:07;;;;;;;43.58;23.55;;;;;;;;;;5122928;28;20062;-77
2024/01/18 10:38:34;;;;;;;41.75;24.30;;;;;;;;;;5125256;27;20026;-78
2024/01/18 10:41:01;;;;;;;263.38;26.65;;;8.50;99.90;;;;;;5143499;27;20048;-76
2024/01/18 10:43:31;;;;;;;37.30;23.27;;;8.50;99.90;;;;;;5124409;27;20456;-77
2024/01/18 10:46:00;;;;;;;41.38;22.42;;;8.60;99.90;;;;;;5103947;28;20207;-80
2024/01/18 10:48:26;;;;;;;41.22;22.75;;;8.30;99.90;;;;;;5121600;28;20019;-81
2024/01/18 10:50:55;;;;;;;44.45;23.02;;;8.40;99.90;;;;;;5102860;28;20320;-81
2024/01/18 10:53:23;;;;;;;46.42;23.70;;;8.40;99.90;;;;;;5103515;28;20022;-81
2024/01/18 10:55:49;;;;;;;44.65;24.35;;;;;;;;;;5121760;28;20040;-79
2024/01/18 10:58:15;;;;;;;50.40;25.60;;;8.90;99.90;;;;;;5121666;28;20051;-79
2024/01/18 11:00:41;;;;;;;45.03;25.85;;;;;;;;;;5103632;28;20250;-81
2024/01/18 11:03:08;;;;;;;46.60;25.83;;;8.60;99.90;;;;;;5103792;28;20095;-80
2024/01/18 11:05:34;;;;;;;54.00;26.75;;;8.60;99.90;;;;;;5104350;28;20072;-80
2024/01/18 11:08:00;;;;;;;61.88;28.00;;;;;;;;;;5122967;28;20024;-79
2024/01/18 11:10:25;;;;;;;54.65;28.20;;;8.80;99.90;;;;;;5123013;28;20027;-79
2024/01/18 11:12:52;;;;;;;64.53;28.95;;;9.00;99.90;;;;;;5121171;28;20185;-79
2024/01/18 11:15:19;;;;;;;58.20;28.50;;;8.80;99.90;;;;;;5103804;28;20274;-80
2024/01/18 11:17:50;;;;;;;51.08;26.88;;;8.90;99.90;;;;;;5104367;28;20094;-81
2024/01/18 11:20:16;;;;;;;43.78;26.48;;;9.30;99.90;;;;;;5122636;28;20094;-79
2024/01/18 11:22:42;;;;;;;44.13;24.65;;;9.40;99.90;;;;;;5104304;28;20012;-80
2024/01/18 11:25:17;;;;;;;33.03;20.70;;;9.10;99.90;;;;;;5122442;28;20027;-78
2024/01/18 11:27:43;;;;;;;38.15;21.75;;;9.00;99.90;;;;;;5122715;28;20039;-82
2024/01/18 11:30:31;;;;;;;33.90;19.52;;;9.20;99.90;;;;;;5120595;28;20319;-79
2024/01/18 11:32:57;;;;;;;35.83;20.58;;;9.10;99.90;;;;;;5104558;28;20023;-81
2024/01/18 11:35:24;;;;;;;40.85;23.92;;;9.10;99.90;;;;;;5122851;28;20066;-80
2024/01/18 11:37:50;;;;;;;44.75;24.42;;;9.10;99.90;;;;;;5122503;28;20024;-80
2024/01/18 11:40:17;;;;;;;38.47;23.88;;;9.00;99.90;;;;;;5121833;28;20356;-80
2024/01/18 11:42:45;;;;;;;42.28;21.48;;;9.50;99.90;;;;;;5121661;28;20023;-81
2024/01/18 11:45:18;;;;;;;37.28;22.13;;;8.90;99.90;;;;;;5103524;28;20557;-80
2024/01/18 11:47:45;;;;;;;42.53;22.92;;;8.90;99.90;;;;;;5103751;28;20031;-78
2024/01/18 11:50:12;;;;;;;31.92;19.88;;;8.90;99.90;;;;;;5122043;28;20023;-80
2024/01/18 11:52:44;;;;;;;31.65;19.65;;;8.90;99.90;;;;;;5121930;28;20060;-80
2024/01/18 11:55:11;;;;;;;32.97;19.17;;;8.50;99.90;;;;;;5121814;28;20265;-79
2024/01/18 11:57:37;;;;;;;29.23;18.45;;;9.00;99.90;;;;;;5103599;28;20207;-81
2024/01/18 12:00:04;;;;;;;36.47;19.15;;;9.00;99.90;;;;;;5121799;28;20308;-80
2024/01/18 12:02:30;;;;;;;29.45;17.95;;;;;;;;;;5121750;28;20035;-80
2024/01/18 12:04:57;;;;;;;29.65;18.60;;;8.90;99.90;;;;;;5103642;28;20031;-75
2024/01/18 12:07:24;;;;;;;46.65;27.83;;;9.20;99.90;;;;;;5103391;28;20078;-80
2024/01/18 12:09:50;;;;;;;41.35;21.02;;;;;;;;;;5106165;28;20035;-81
2024/01/18 12:12:17;;;;;;;50.58;27.02;;;9.10;99.90;;;;;;5121973;28;20065;-80
2024/01/18 12:14:44;;;;;;;57.65;30.30;;;9.20;99.90;;;;;;5103370;28;20023;-81
2024/01/18 12:17:11;;;;;;;50.60;29.73;;;9.00;99.90;;;;;;5103227;28;20039;-79
2024/01/18 12:19:41;;;;;;;50.80;28.52;;;9.30;99.90;;;;;;5103065;28;20023;-81
2024/01/18 12:22:07;;;;;;;53.15;28.70;;;;;;;;;;5121524;28;20317;-79
2024/01/18 12:24:33;;;;;;;41.38;25.50;;;9.40;99.90;;;;;;5103334;28;20022;-80
2024/01/18 12:26:59;;;;;;;35.80;22.90;;;9.40;99.90;;;;;;5103291;28;20267;-80
2024/01/18 12:29:26;;;;;;;34.97;22.08;;;9.50;99.90;;;;;;5103147;28;20019;-81
2024/01/18 12:31:52;;;;;;;31.08;19.52;;;;;;;;;;5102082;28;20032;-82
2024/01/18 12:34:22;;;;;;;31.88;18.50;;;9.60;99.90;;;;;;5085722;28;20044;-81
2024/01/18 12:36:48;;;;;;;25.85;16.17;;;9.60;99.90;;;;;;5082646;28;20063;-80
2024/01/18 12:39:19;;;;;;;24.10;16.20;;;10.00;99.90;;;;;;5082958;28;20309;-75
2024/01/18 12:41:45;;;;;;;23.20;15.63;;;9.70;99.90;;;;;;5100974;28;20027;-72
2024/01/18 12:44:12;;;;;;;24.15;14.88;;;10.10;99.90;;;;;;5100587;28;20047;-73
2024/01/18 12:46:39;;;;;;;21.58;14.95;;;10.10;99.90;;;;;;5100690;28;20027;-75
2024/01/18 12:49:06;;;;;;;21.90;13.68;;;9.80;99.90;;;;;;5106100;28;20368;-80
2024/01/18 12:51:33;;;;;;;23.38;14.82;;;9.90;99.90;;;;;;5120869;28;20047;-77